Time;durP1;ratioP1;P1;durP2;ratioP2;P2;SDS_P1;SDS_P2;PMS_P1;PMS_P2;Temp;Humidity;BMP_temperature;BMP_pressure;BME280_temperature;BME280_humidity;BME280_pressure;Samples;Min_cycle;Max_cycle;Signal;HPM_P1;HPM_P2
2022/02/14 00:00:01;;;;;;;29.73;17.27;;;;;;;;;;5077588;28;20473;-87
2022/02/14 00:02:27;;;;;;;34.17;17.92;;;;;;;;;;5076594;28;20433;-87
2022/02/14 00:04:54;;;;;;;31.85;16.17;;;;;;;;;;5077563;28;20062;-89
2022/02/14 00:07:20;;;;;;;27.13;14.70;;;;;;;;;;5076378;28;20086;-87
2022/02/14 00:09:46;;;;;;;28.85;14.63;;;;;;;;;;5077780;28;20412;-87
2022/02/14 00:15:16;;;;;;;23.52;13.43;;;;;;;;;;5077659;28;20098;-86
2022/02/14 00:17:42;;;;;;;24.77;14.25;;;;;;;;;;5077634;28;20107;-87
2022/02/14 00:20:10;;;;;;;31.63;15.00;;;;;;;;;;5077540;28;20028;-87
2022/02/14 00:22:36;;;;;;;26.27;14.68;;;;;;;;;;5077484;28;20025;-86
2022/02/14 00:25:03;;;;;;;27.67;15.07;;;;;;;;;;5077726;28;20021;-86
2022/02/14 00:27:29;;;;;;;26.92;14.50;;;;;;;;;;5077514;28;20020;-87
2022/02/14 00:29:55;;;;;;;24.60;13.73;;;;;;;;;;5077319;28;20024;-86
2022/02/14 00:32:22;;;;;;;23.70;13.10;;;;;;;;;;5077686;28;20033;-87
2022/02/14 00:34:48;;;;;;;23.13;13.30;;;;;;;;;;5077447;28;20036;-88
2022/02/14 00:37:14;;;;;;;23.65;13.70;;;;;;;;;;5077157;28;20063;-87
2022/02/14 00:39:41;;;;;;;23.65;12.70;;;;;;;;;;5077467;28;20028;-87
2022/02/14 00:45:10;;;;;;;23.75;13.57;;;;;;;;;;5077411;28;20039;-86
2022/02/14 00:47:36;;;;;;;22.83;13.77;;;;;;;;;;5077437;28;20029;-86
2022/02/14 00:50:03;;;;;;;31.33;15.35;;;;;;;;;;5077286;28;20028;-87
2022/02/14 00:52:29;;;;;;;28.85;15.45;;;;;;;;;;5077487;28;20051;-87
2022/02/14 00:54:58;;;;;;;31.23;15.93;;;;;;;;;;5077167;28;20048;-86
2022/02/14 00:57:28;;;;;;;35.80;16.52;;;;;;;;;;5076687;28;20028;-86
2022/02/14 00:59:54;;;;;;;29.10;16.67;;;;;;;;;;5076760;28;20062;-87
2022/02/14 01:02:20;;;;;;;27.33;16.00;;;;;;;;;;5076949;28;20031;-88
2022/02/14 01:04:46;;;;;;;29.45;15.88;;;;;;;;;;5076167;28;20028;-87
2022/02/14 01:07:12;;;;;;;41.70;18.50;;;;;;;;;;5076933;28;20049;-87
2022/02/14 01:09:39;;;;;;;43.40;18.75;;;;;;;;;;5077326;28;20024;-87
2022/02/14 01:12:05;;;;;;;43.70;19.05;;;;;;;;;;5077482;28;20024;-87
2022/02/14 01:14:31;;;;;;;38.17;19.98;;;;;;;;;;5076983;28;20017;-88
2022/02/14 01:16:57;;;;;;;32.60;18.30;;;;;;;;;;5080757;28;20094;-87
2022/02/14 01:19:24;;;;;;;34.15;19.23;;;;;;;;;;5080308;28;20025;-88
2022/02/14 01:21:50;;;;;;;27.40;16.77;;;;;;;;;;5080628;28;20025;-86
2022/02/14 01:24:16;;;;;;;32.28;16.67;;;;;;;;;;5080626;28;20029;-87
2022/02/14 01:26:42;;;;;;;27.52;16.13;;;;;;;;;;5080668;28;20024;-87
2022/02/14 01:29:09;;;;;;;30.65;16.80;;;;;;;;;;5080222;28;20055;-87
2022/02/14 01:31:35;;;;;;;28.55;16.38;;;;;;;;;;5080253;28;20032;-88
2022/02/14 01:34:01;;;;;;;29.67;15.55;;;;;;;;;;5080582;28;20020;-87
2022/02/14 01:36:27;;;;;;;32.42;18.27;;;;;;;;;;5080471;28;20099;-87
2022/02/14 01:38:53;;;;;;;31.58;17.70;;;;;;;;;;5079192;28;20028;-87
2022/02/14 01:41:19;;;;;;;30.17;17.23;;;;;;;;;;5080372;28;20043;-87
2022/02/14 01:43:46;;;;;;;31.17;16.40;;;;;;;;;;5079302;28;20103;-88
2022/02/14 01:46:12;;;;;;;28.98;16.67;;;;;;;;;;5079117;28;20025;-87
2022/02/14 01:48:39;;;;;;;32.13;17.42;;;;;;;;;;5079071;28;20131;-88
2022/02/14 01:51:06;;;;;;;30.15;18.23;;;;;;;;;;5079952;28;20024;-87
2022/02/14 01:53:32;;;;;;;38.42;19.48;;;;;;;;;;5080249;28;20025;-87
2022/02/14 01:56:21;;;;;;;37.60;19.88;;;;;;;;;;5079822;28;20060;-88
2022/02/14 01:58:48;;;;;;;31.50;17.77;;;;;;;;;;5078677;28;20035;-87
2022/02/14 02:01:14;;;;;;;28.42;16.73;;;;;;;;;;5079824;28;20043;-87
2022/02/14 02:03:40;;;;;;;31.65;16.52;;;;;;;;;;5080003;28;20099;-88
2022/02/14 02:06:07;;;;;;;34.10;17.90;;;;;;;;;;5079945;28;20025;-88
2022/02/14 02:08:33;;;;;;;28.95;15.82;;;;;;;;;;5078512;28;20147;-87
2022/02/14 02:12:22;;;;;;;28.90;16.27;;;;;;;;;;5078739;28;20406;-87
2022/02/14 02:13:51;;;;;;;29.55;17.00;;;;;;;;;;5079638;28;20035;-87
2022/02/14 02:16:17;;;;;;;25.75;15.85;;;;;;;;;;5079790;28;20024;-86
2022/02/14 02:18:43;;;;;;;22.83;15.10;;;;;;;;;;5079311;28;20028;-86
2022/02/14 02:21:09;;;;;;;24.15;14.80;;;;;;;;;;5079187;28;20021;-87
2022/02/14 02:23:39;;;;;;;25.67;15.00;;;;;;;;;;5079339;28;20330;-86
2022/02/14 02:26:34;;;;;;;25.15;15.45;;;;;;;;;;5079080;28;20214;-87
2022/02/14 02:29:00;;;;;;;28.10;14.38;;;;;;;;;;5078160;28;20036;-87
2022/02/14 02:31:26;;;;;;;24.30;15.82;;;;;;;;;;5079194;28;20024;-87
2022/02/14 02:33:52;;;;;;;25.52;16.30;;;;;;;;;;5079355;28;20415;-87
2022/02/14 02:36:18;;;;;;;25.55;15.73;;;;;;;;;;5078954;28;20470;-87
2022/02/14 02:38:45;;;;;;;26.60;16.08;;;;;;;;;;5077858;28;20418;-87
2022/02/14 02:41:11;;;;;;;23.23;14.93;;;;;;;;;;5078873;28;20021;-86
2022/02/14 02:43:37;;;;;;;24.42;15.48;;;;;;;;;;5078863;28;20062;-88
2022/02/14 02:46:03;;;;;;;23.48;14.43;;;;;;;;;;5079155;28;20021;-87
2022/02/14 02:48:29;;;;;;;28.83;16.77;;;;;;;;;;5078962;28;20025;-87
2022/02/14 02:51:05;;;;;;;28.27;16.40;;;;;;;;;;5078793;28;20028;-86
2022/02/14 02:53:34;;;;;;;33.47;18.75;;;;;;;;;;5077991;28;20024;-87
2022/02/14 02:56:01;;;;;;;31.83;17.10;;;;;;;;;;5078514;28;20433;-86
2022/02/14 02:58:27;;;;;;;27.05;17.23;;;;;;;;;;5078453;28;20016;-87
2022/02/14 03:00:53;;;;;;;30.48;18.20;;;;;;;;;;5078465;28;20024;-86
2022/02/14 03:03:19;;;;;;;29.73;17.92;;;;;;;;;;5078473;28;20058;-87
2022/02/14 03:05:45;;;;;;;36.83;19.90;;;;;;;;;;5078396;28;20021;-86
2022/02/14 03:08:11;;;;;;;34.47;18.48;;;;;;;;;;5078080;28;20053;-86
2022/02/14 03:10:37;;;;;;;32.05;17.20;;;;;;;;;;5078668;28;20081;-88
2022/02/14 03:13:03;;;;;;;27.02;16.33;;;;;;;;;;5077588;28;20028;-87
2022/02/14 03:15:29;;;;;;;29.95;16.98;;;;;;;;;;5077475;28;20043;-87
2022/02/14 03:17:58;;;;;;;25.88;16.20;;;;;;;;;;5077334;28;20406;-87
2022/02/14 03:20:24;;;;;;;27.65;16.67;;;;;;;;;;5078247;28;20095;-88
2022/02/14 03:22:50;;;;;;;26.20;16.48;;;;;;;;;;5077133;28;20136;-88
2022/02/14 03:25:16;;;;;;;26.80;16.33;;;;;;;;;;5078091;28;20023;-87
2022/02/14 03:27:42;;;;;;;28.45;17.17;;;;;;;;;;5077258;28;20027;-88
2022/02/14 03:30:09;;;;;;;26.85;16.02;;;;;;;;;;5078005;28;20063;-88
2022/02/14 03:32:35;;;;;;;26.38;15.88;;;;;;;;;;5078275;28;20150;-88
2022/02/14 03:35:01;;;;;;;26.13;15.50;;;;;;;;;;5078396;28;20322;-88
2022/02/14 03:37:27;;;;;;;27.33;16.23;;;;;;;;;;5076938;28;20345;-87
2022/02/14 03:39:53;;;;;;;26.05;16.27;;;;;;;;;;5077695;28;20021;-87
2022/02/14 03:42:19;;;;;;;30.48;16.90;;;;;;;;;;5078134;28;20100;-87
2022/02/14 03:44:45;;;;;;;27.15;15.60;;;;;;;;;;5077814;28;20025;-88
2022/02/14 03:47:11;;;;;;;25.42;16.27;;;;;;;;;;5077664;28;20341;-87
2022/02/14 03:49:37;;;;;;;26.48;16.35;;;;;;;;;;5076548;28;20078;-87
2022/02/14 03:52:03;;;;;;;28.10;16.08;;;;;;;;;;5077732;28;20025;-87
2022/02/14 03:54:30;;;;;;;24.25;15.82;;;;;;;;;;5077723;28;20052;-87
2022/02/14 03:56:56;;;;;;;25.13;15.60;;;;;;;;;;5077567;28;20342;-87
2022/02/14 03:59:22;;;;;;;25.67;15.20;;;;;;;;;;5077503;28;20494;-87
2022/02/14 04:01:48;;;;;;;24.88;15.35;;;;;;;;;;5076660;28;20334;-87
2022/02/14 04:04:14;;;;;;;27.77;17.00;;;;;;;;;;5077766;28;20020;-86
2022/02/14 04:06:40;;;;;;;58.03;28.15;;;;;;;;;;5077295;28;20024;-88
2022/02/14 04:09:06;;;;;;;50.00;27.77;;;;;;;;;;5077410;28;20036;-87
2022/02/14 04:11:32;;;;;;;35.88;23.20;;;;;;;;;;5076549;28;20056;-86
2022/02/14 04:13:58;;;;;;;32.50;19.75;;;;;;;;;;5077792;28;20043;-87
2022/02/14 04:16:24;;;;;;;26.25;16.40;;;;;;;;;;5076632;28;20123;-87
2022/02/14 04:18:50;;;;;;;24.42;15.52;;;;;;;;;;5077339;28;20021;-87
2022/02/14 04:21:16;;;;;;;28.33;15.73;;;;;;;;;;5077381;28;20020;-87
2022/02/14 04:23:42;;;;;;;28.45;15.18;;;;;;;;;;5077414;28;20027;-89
2022/02/14 04:26:08;;;;;;;27.08;16.38;;;;;;;;;;5077199;28;20024;-88
2022/02/14 04:28:35;;;;;;;27.15;16.48;;;;;;;;;;5077188;28;20107;-87
2022/02/14 04:31:01;;;;;;;26.63;15.88;;;;;;;;;;5077393;28;20495;-88
2022/02/14 04:33:27;;;;;;;24.88;15.07;;;;;;;;;;5077412;28;20021;-87
2022/02/14 04:35:53;;;;;;;30.92;19.23;;;;;;;;;;5077578;28;20017;-88
2022/02/14 04:38:19;;;;;;;28.38;16.70;;;;;;;;;;5076270;28;20033;-90
2022/02/14 04:40:45;;;;;;;27.48;16.92;;;;;;;;;;5076375;28;20032;-89
2022/02/14 04:43:11;;;;;;;27.23;16.83;;;;;;;;;;5077122;28;20024;-88
2022/02/14 04:45:37;;;;;;;28.77;16.80;;;;;;;;;;5077354;28;20108;-88
2022/02/14 04:48:03;;;;;;;34.28;19.20;;;;;;;;;;5077568;28;20024;-88
2022/02/14 04:50:29;;;;;;;47.35;24.52;;;;;;;;;;5078693;28;20410;-88
2022/02/14 04:52:55;;;;;;;42.45;23.58;;;;;;;;;;5080125;28;20037;-87
2022/02/14 04:55:22;;;;;;;43.17;25.50;;;;;;;;;;5081041;28;20071;-88
2022/02/14 04:57:48;;;;;;;53.05;29.10;;;;;;;;;;5080827;28;20033;-88
2022/02/14 05:00:15;;;;;;;53.72;28.75;;;;;;;;;;5081117;28;20027;-86
2022/02/14 05:02:41;;;;;;;55.65;28.23;;;;;;;;;;5080812;28;20367;-87
2022/02/14 05:05:07;;;;;;;45.65;25.60;;;;;;;;;;5080459;28;20042;-87
2022/02/14 05:07:33;;;;;;;38.20;21.50;;;;;;;;;;5079589;28;20056;-87
2022/02/14 05:09:59;;;;;;;37.97;21.73;;;;;;;;;;5079822;28;20028;-87
2022/02/14 05:12:26;;;;;;;44.55;23.45;;;;;;;;;;5080408;28;20112;-87
2022/02/14 05:14:52;;;;;;;52.67;26.55;;;;;;;;;;5079901;28;20082;-88
2022/02/14 05:17:18;;;;;;;39.20;23.10;;;;;;;;;;5080548;28;20028;-87
2022/02/14 05:19:44;;;;;;;29.30;17.73;;;;;;;;;;5080711;28;20028;-87
2022/02/14 05:22:10;;;;;;;32.08;17.17;;;;;;;;;;5079409;28;20124;-88
2022/02/14 05:24:37;;;;;;;31.67;18.83;;;;;;;;;;5080527;28;20322;-87
2022/02/14 05:27:03;;;;;;;32.35;18.13;;;;;;;;;;5080184;28;20025;-87
2022/02/14 05:29:29;;;;;;;29.38;17.25;;;;;;;;;;5080302;28;20039;-88
2022/02/14 05:31:56;;;;;;;27.75;17.10;;;;;;;;;;5080446;28;20025;-88
2022/02/14 05:34:22;;;;;;;29.27;16.67;;;;;;;;;;5080362;28;20095;-87
2022/02/14 05:36:48;;;;;;;33.72;16.90;;;;;;;;;;5080250;28;20465;-88
2022/02/14 05:39:14;;;;;;;30.25;18.02;;;;;;;;;;5079224;28;20420;-88
2022/02/14 05:41:41;;;;;;;29.15;15.05;;;;;;;;;;5080046;28;20292;-88
2022/02/14 05:44:08;;;;;;;29.08;15.43;;;;;;;;;;5079087;28;20033;-88
2022/02/14 05:46:34;;;;;;;32.13;18.05;;;;;;;;;;5080334;28;20069;-88
2022/02/14 05:49:00;;;;;;;32.80;18.27;;;;;;;;;;5079115;28;20111;-87
2022/02/14 05:51:27;;;;;;;37.83;20.77;;;;;;;;;;5078827;28;20044;-88
2022/02/14 05:53:53;;;;;;;40.47;21.13;;;;;;;;;;5078976;28;20117;-88
2022/02/14 05:56:19;;;;;;;47.70;24.65;;;;;;;;;;5079854;28;20025;-86
2022/02/14 05:58:45;;;;;;;43.22;22.85;;;;;;;;;;5078985;28;20017;-86
2022/02/14 06:01:11;;;;;;;46.65;23.88;;;;;;;;;;5078356;28;20046;-86
2022/02/14 06:03:37;;;;;;;37.88;22.58;;;;;;;;;;5079486;28;20029;-86
2022/02/14 06:06:03;;;;;;;33.13;20.42;;;;;;;;;;5079662;28;20108;-86
2022/02/14 06:08:29;;;;;;;32.47;19.15;;;;;;;;;;5079375;28;20053;-86
2022/02/14 06:10:55;;;;;;;29.42;18.20;;;;;;;;;;5079651;28;20035;-85
2022/02/14 06:13:22;;;;;;;33.08;19.52;;;;;;;;;;5078272;28;20024;-85
2022/02/14 06:15:48;;;;;;;33.20;18.73;;;;;;;;;;5079864;28;20032;-87
2022/02/14 06:18:17;;;;;;;32.08;19.50;;;;;;;;;;5079501;28;20035;-85
2022/02/14 06:20:43;;;;;;;32.33;19.00;;;;;;;;;;5076388;28;20338;-87
2022/02/14 06:23:09;;;;;;;32.17;18.83;;;;;;;;;;5062730;28;20033;-86
2022/02/14 06:25:35;;;;;;;33.10;19.15;;;;;;;;;;5071071;28;20028;-86
2022/02/14 06:28:40;;;;;;;33.00;18.23;;;;;;;;;;5059159;28;20411;-87
2022/02/14 06:31:07;;;;;;;40.08;18.33;;;;;;;;;;5058241;28;20108;-87
2022/02/14 06:33:33;;;;;;;29.67;18.30;;;;;;;;;;5071561;28;20078;-86
2022/02/14 06:35:59;;;;;;;30.38;18.80;;;;;;;;;;5077437;28;20041;-87
2022/02/14 06:38:25;;;;;;;33.15;19.15;;;;;;;;;;5078287;28;20406;-87
2022/02/14 06:40:51;;;;;;;38.45;19.45;;;;;;;;;;5073633;28;20445;-86
2022/02/14 06:43:17;;;;;;;34.80;21.05;;;;;;;;;;5058991;28;20041;-86
2022/02/14 06:45:43;;;;;;;36.15;19.55;;;;;;;;;;5058953;28;20025;-87
2022/02/14 06:48:09;;;;;;;32.42;19.25;;;;;;;;;;5058883;28;20024;-87
2022/02/14 06:50:36;;;;;;;35.00;19.85;;;;;;;;;;5060069;28;20316;-87
2022/02/14 06:53:02;;;;;;;38.83;18.50;;;;;;;;;;5059775;28;20036;-85
2022/02/14 06:55:28;;;;;;;35.45;19.98;;;;;;;;;;5068036;28;20040;-88
2022/02/14 07:00:57;;;;;;;;;;;;;;;;;;5079376;28;20065;-89
2022/02/14 07:03:23;;;;;;;33.33;18.45;;;;;;;;;;5066082;28;19913;-87
2022/02/14 07:05:49;;;;;;;31.63;18.42;;;;;;;;;;5057461;28;20025;-88
2022/02/14 07:08:15;;;;;;;35.92;19.17;;;;;;;;;;5058282;28;20438;-88
2022/02/14 07:10:41;;;;;;;34.33;19.40;;;;;;;;;;5072910;28;20311;-86
2022/02/14 07:13:22;;;;;;;30.45;19.50;;;;;;;;;;5067701;28;20029;-87
2022/02/14 07:15:48;;;;;;;34.95;19.13;;;;;;;;;;5058698;28;20064;-87
2022/02/14 07:18:15;;;;;;;32.50;18.77;;;;;;;;;;5071309;28;20110;-87
2022/02/14 07:20:41;;;;;;;39.92;18.48;;;;;;;;;;5083219;28;20021;-86
2022/02/14 07:23:07;;;;;;;37.33;20.35;;;;;;;;;;5065880;28;20429;-89
2022/02/14 07:25:34;;;;;;;37.15;19.48;;;;;;;;;;5078541;28;20406;-87
2022/02/14 07:28:18;;;;;;;36.85;20.15;;;;;;;;;;5077201;28;20090;-86
2022/02/14 07:30:45;;;;;;;38.33;21.30;;;;;;;;;;5069863;28;20445;-84
2022/02/14 07:33:11;;;;;;;37.28;20.52;;;;;;;;;;5073970;28;20033;-84
2022/02/14 07:35:37;;;;;;;37.05;20.85;;;;;;;;;;5065050;28;20013;-94
2022/02/14 07:38:03;;;;;;;36.15;21.58;;;;;;;;;;5058080;28;20037;-94
2022/02/14 07:40:29;;;;;;;40.22;22.40;;;;;;;;;;5058083;28;20044;-93
2022/02/14 07:42:55;;;;;;;33.85;18.67;;;;;;;;;;5057934;28;20020;-93
2022/02/14 07:45:23;;;;;;;36.58;22.15;;;;;;;;;;5057235;28;20067;-94
2022/02/14 07:47:49;;;;;;;35.05;20.75;;;;;;;;;;5057965;28;20056;-95
2022/02/14 07:50:15;;;;;;;39.72;20.60;;;;;;;;;;5058063;28;20067;-92
2022/02/14 07:52:41;;;;;;;35.33;19.30;;;;;;;;;;5058523;28;20033;-94
2022/02/14 07:55:08;;;;;;;35.25;19.83;;;;;;;;;;5057574;28;20032;-93
2022/02/14 07:57:34;;;;;;;35.38;21.13;;;;;;;;;;5058160;28;20025;-93
2022/02/14 08:00:02;;;;;;;30.98;19.52;;;;;;;;;;5056902;28;20049;-93
2022/02/14 08:02:28;;;;;;;34.60;19.52;;;;;;;;;;5056550;28;20415;-94
2022/02/14 08:04:54;;;;;;;32.53;20.17;;;;;;;;;;5057736;28;20400;-93
2022/02/14 08:07:20;;;;;;;31.80;18.92;;;;;;;;;;5057226;28;20053;-94
2022/02/14 08:09:46;;;;;;;35.83;20.58;;;;;;;;;;5057781;28;20326;-93
2022/02/14 08:12:12;;;;;;;33.72;20.90;;;;;;;;;;5057620;28;20108;-93
2022/02/14 08:14:39;;;;;;;28.92;19.10;;;;;;;;;;5056734;28;20029;-93
2022/02/14 08:17:06;;;;;;;30.88;19.45;;;;;;;;;;5056518;28;20032;-94
2022/02/14 08:19:33;;;;;;;38.85;21.17;;;;;;;;;;5057808;28;20052;-94
2022/02/14 08:21:59;;;;;;;33.65;21.38;;;;;;;;;;5057429;28;20028;-93
2022/02/14 08:24:26;;;;;;;35.97;21.45;;;;;;;;;;5059050;28;20028;-94
2022/02/14 08:26:52;;;;;;;31.98;20.95;;;;;;;;;;5061633;28;20029;-92
2022/02/14 08:29:18;;;;;;;37.13;21.70;;;;;;;;;;5061521;28;20036;-93
2022/02/14 08:31:45;;;;;;;35.45;21.50;;;;;;;;;;5061431;28;20036;-94
2022/02/14 08:34:12;;;;;;;43.25;26.98;;;;;;;;;;5081506;28;20100;-92
2022/02/14 08:36:38;;;;;;;39.10;23.00;;;;;;;;;;5081524;28;20377;-93
2022/02/14 08:39:04;;;;;;;36.53;21.23;;;;;;;;;;5080596;28;20029;-93
2022/02/14 08:41:30;;;;;;;41.75;22.65;;;;;;;;;;5080788;28;20048;-94
2022/02/14 08:43:56;;;;;;;32.45;20.35;;;;;;;;;;5080500;28;20440;-94
2022/02/14 08:46:22;;;;;;;33.53;21.52;;;;;;;;;;5080371;28;20025;-94
2022/02/14 08:48:52;;;;;;;37.65;19.65;;;;;;;;;;5081376;28;20025;-94
2022/02/14 08:51:18;;;;;;;35.17;20.02;;;;;;;;;;5080504;28;20024;-93
2022/02/14 08:53:45;;;;;;;30.05;18.30;;;;;;;;;;5080400;28;20393;-94
2022/02/14 08:56:11;;;;;;;29.27;18.48;;;;;;;;;;5081249;28;20024;-94
2022/02/14 08:58:39;;;;;;;36.55;19.50;;;;;;;;;;5081328;28;20031;-93
2022/02/14 09:01:06;;;;;;;34.47;20.15;;;;;;;;;;5081233;28;20070;-94
2022/02/14 09:03:32;;;;;;;32.25;20.60;;;;;;;;;;5081065;28;20020;-94
2022/02/14 09:05:58;;;;;;;36.95;20.42;;;;;;;;;;5081231;28;20027;-93
2022/02/14 09:08:25;;;;;;;32.90;22.35;;;;;;;;;;5081021;28;20427;-94
2022/02/14 09:10:51;;;;;;;33.33;21.40;;;;;;;;;;5080901;28;20032;-94
2022/02/14 09:13:17;;;;;;;31.90;21.35;;;;;;;;;;5081300;28;20051;-93
2022/02/14 09:15:44;;;;;;;36.40;22.00;;;;;;;;;;5081011;28;20024;-93
2022/02/14 09:18:10;;;;;;;33.28;21.70;;;;;;;;;;5079620;28;20033;-92
2022/02/14 09:20:37;;;;;;;37.30;22.80;;;;;;;;;;5080826;28;20045;-93
2022/02/14 09:23:03;;;;;;;33.63;19.92;;;;;;;;;;5080836;28;20020;-94
2022/02/14 09:25:29;;;;;;;35.40;20.80;;;;;;;;;;5080720;28;20404;-93
2022/02/14 09:27:55;;;;;;;32.88;21.30;;;;;;;;;;5080782;28;20026;-93
2022/02/14 09:30:21;;;;;;;37.13;21.52;;;;;;;;;;5080775;28;20099;-94
2022/02/14 09:32:48;;;;;;;49.15;23.15;;;;;;;;;;5080411;28;20025;-93
2022/02/14 09:35:26;;;;;;;37.55;22.40;;;;;;;;;;5079333;28;20087;-93
2022/02/14 09:37:52;;;;;;;33.88;21.08;;;;;;;;;;5080081;28;20060;-92
2022/02/14 09:40:18;;;;;;;40.25;22.00;;;;;;;;;;5080636;28;20085;-93
2022/02/14 09:42:44;;;;;;;39.67;20.20;;;;;;;;;;5080048;28;20024;-93
2022/02/14 09:45:10;;;;;;;36.58;20.02;;;;;;;;;;5078971;28;20032;-93
2022/02/14 09:47:37;;;;;;;42.22;23.25;;;;;;;;;;5078994;28;20016;-93
2022/02/14 09:50:03;;;;;;;42.00;20.58;;;;;;;;;;5079106;28;20123;-94
2022/02/14 09:52:30;;;;;;;46.03;21.13;;;;;;;;;;5070674;28;20021;-93
2022/02/14 09:54:58;;;;;;;31.58;21.02;;;;;;;;;;5059188;28;20043;-93
2022/02/14 09:57:24;;;;;;;31.63;20.63;;;;;;;;;;5069618;28;20021;-93
2022/02/14 09:59:50;;;;;;;37.00;20.92;;;;;;;;;;5079257;28;20029;-93
2022/02/14 10:02:20;;;;;;;33.65;20.02;;;;;;;;;;5069058;28;20045;-92
2022/02/14 10:05:00;;;;;;;36.13;19.90;;;;;;;;;;5063995;28;20350;-94
2022/02/14 10:07:37;;;;;;;30.65;20.02;;;;;;;;;;5076624;28;20048;-94
2022/02/14 10:10:10;;;;;;;27.17;17.80;;;;;;;;;;5099029;28;20042;-93
2022/02/14 10:12:41;;;;;;;32.35;19.85;;;;;;;;;;5099171;28;20111;-79
2022/02/14 10:15:07;;;;;;;35.70;19.60;;;;;;;;;;5098167;28;20020;-80
2022/02/14 10:17:45;;;;;;;35.28;20.30;;;;;;;;;;5098911;28;20028;-80
2022/02/14 10:20:15;;;;;;;35.53;21.52;;;;;;;;;;5098079;28;20020;-80
2022/02/14 10:22:51;;;;;;;29.38;19.15;;;;;;;;;;5090945;28;20027;-79
2022/02/14 10:25:29;;;;;;;32.83;20.55;;;;;;;;;;5073746;28;20081;-80
2022/02/14 10:28:12;;;;;;;34.40;20.02;;;;;;;;;;5078718;28;20059;-80
2022/02/14 10:31:02;;;;;;;29.75;19.35;;;;;;;;;;5058670;28;20020;-79
2022/02/14 10:33:47;;;;;;;34.92;19.88;;;;;;;;;;5063539;28;20070;-79
2022/02/14 10:36:13;;;;;;;33.08;19.27;;;;;;;;;;5069557;28;20036;-79
2022/02/14 10:38:40;;;;;;;32.95;19.02;;;;;;;;;;5058232;28;20053;-79
2022/02/14 10:41:15;;;;;;;30.95;19.85;;;;;;;;;;5072360;28;20063;-79
2022/02/14 10:43:42;;;;;;;37.55;21.58;;;;;;;;;;5078362;28;20048;-78
2022/02/14 10:46:09;;;;;;;32.83;20.98;;;;;;;;;;5078330;28;20027;-79
2022/02/14 10:48:37;;;;;;;28.77;18.35;;;;;;;;;;5077164;28;20343;-79
2022/02/14 10:51:03;;;;;;;27.85;17.73;;;;;;;;;;5094616;28;20330;-78
2022/02/14 10:53:29;;;;;;;25.75;17.15;;;;;;;;;;5097170;28;20317;-79
2022/02/14 10:55:58;;;;;;;23.63;16.30;;;;;;;;;;5085272;28;20171;-78
2022/02/14 10:58:28;;;;;;;28.73;19.25;;;;;;;;;;5077974;28;20025;-79
2022/02/14 11:00:57;;;;;;;31.35;18.13;;;;;;;;;;5077941;28;20025;-79
2022/02/14 11:03:23;;;;;;;28.80;18.08;;;;;;;;;;5078152;28;20144;-79
2022/02/14 11:05:51;;;;;;;30.58;19.75;;;;;;;;;;5077995;28;20020;-79
2022/02/14 11:08:20;;;;;;;32.58;20.70;;;;;;;;;;5077722;28;20063;-79
2022/02/14 11:10:48;;;;;;;37.25;18.85;;;;;;;;;;5076623;28;20397;-79
2022/02/14 11:13:15;;;;;;;28.83;18.83;;;;;;;;;;5077855;28;20021;-79
2022/02/14 11:15:44;;;;;;;28.55;18.65;;;;;;;;;;5076649;28;20059;-79
2022/02/14 11:18:21;;;;;;;32.15;16.65;;;;;;;;;;5077557;28;20119;-79
2022/02/14 11:20:49;;;;;;;29.73;18.27;;;;;;;;;;5077775;28;20025;-79
2022/02/14 11:23:16;;;;;;;30.55;17.08;;;;;;;;;;5077647;28;20021;-79
2022/02/14 11:25:43;;;;;;;40.70;23.38;;;;;;;;;;5077632;28;20311;-78
2022/02/14 11:28:10;;;;;;;38.95;20.13;;;;;;;;;;5077492;28;20361;-79
2022/02/14 11:30:36;;;;;;;34.00;19.05;;;;;;;;;;5077493;28;20031;-79
2022/02/14 11:33:05;;;;;;;36.35;19.98;;;;;;;;;;5077418;28;20030;-79
2022/02/14 11:35:31;;;;;;;28.52;19.10;;;;;;;;;;5076420;28;20433;-79
2022/02/14 11:38:00;;;;;;;30.08;20.15;;;;;;;;;;5077314;28;20101;-79
2022/02/14 11:40:32;;;;;;;33.92;19.58;;;;;;;;;;5077308;28;20025;-79
2022/02/14 11:43:19;;;;;;;30.30;20.73;;;;;;;;;;5077296;28;20025;-79
2022/02/14 11:45:45;;;;;;;35.55;20.85;;;;;;;;;;5077383;28;20020;-79
2022/02/14 11:48:20;;;;;;;37.63;22.60;;;;;;;;;;5077472;28;20093;-79
2022/02/14 11:50:46;;;;;;;32.65;21.88;;;;;;;;;;5077183;28;20420;-79
2022/02/14 11:53:32;;;;;;;30.27;20.50;;;;;;;;;;5077081;28;20020;-78
2022/02/14 11:56:16;;;;;;;29.70;18.85;;;;;;;;;;5077338;28;20036;-79
2022/02/14 11:59:01;;;;;;;32.40;21.27;;;;;;;;;;5076801;28;20028;-79
2022/02/14 12:01:29;;;;;;;36.78;20.42;;;;;;;;;;5076984;28;20333;-79
2022/02/14 12:04:15;;;;;;;37.60;21.33;;;;;;;;;;5076995;28;20047;-78
2022/02/14 12:07:00;;;;;;;29.67;18.77;;;;;;;;;;5075665;28;20063;-79
2022/02/14 12:09:28;;;;;;;27.75;17.95;;;;;;;;;;5076992;28;20048;-79
2022/02/14 12:11:54;;;;;;;30.55;18.33;;;;;;;;;;5075783;28;20036;-78
2022/02/14 12:14:21;;;;;;;25.17;17.38;;;;;;;;;;5076989;28;20034;-79
2022/02/14 12:22:33;;;;;;;31.33;20.50;;;;;;;;;;5077293;28;20043;-79
2022/02/14 12:25:03;;;;;;;31.95;19.02;;;;;;;;;;5075712;28;20023;-79
2022/02/14 12:27:29;;;;;;;31.85;19.50;;;;;;;;;;5076782;28;20021;-79
2022/02/14 12:29:55;;;;;;;29.10;18.77;;;;;;;;;;5075389;28;20029;-79
2022/02/14 12:32:21;;;;;;;35.10;19.88;;;;;;;;;;5076675;28;20029;-79
2022/02/14 12:34:49;;;;;;;28.35;17.52;;;;;;;;;;5076774;28;20451;-79
2022/02/14 12:37:19;;;;;;;28.60;18.58;;;;;;;;;;5076895;28;20024;-79
2022/02/14 12:39:47;;;;;;;31.52;19.17;;;;;;;;;;5076597;28;20036;-78
2022/02/14 12:42:17;;;;;;;54.60;28.27;;;;;;;;;;5076789;28;20045;-79
2022/02/14 12:44:43;;;;;;;57.58;29.25;;;;;;;;;;5076695;28;20480;-78
2022/02/14 12:47:10;;;;;;;26.95;16.63;;;;;;;;;;5076676;28;20032;-79
2022/02/14 12:49:40;;;;;;;35.00;21.13;;;;;;;;;;5075693;28;20032;-79
2022/02/14 12:52:15;;;;;;;34.58;17.73;;;;;;;;;;5076467;28;20035;-79
2022/02/14 12:54:50;;;;;;;26.25;14.75;;;;;;;;;;5076784;28;20048;-79
2022/02/14 12:57:17;;;;;;;30.00;15.93;;;;;;;;;;5076511;28;20028;-79
2022/02/14 12:59:43;;;;;;;28.88;15.63;;;;;;;;;;5076421;28;20028;-78
2022/02/14 13:02:09;;;;;;;20.17;12.27;;;;;;;;;;5076441;28;20024;-79
2022/02/14 13:04:35;;;;;;;20.08;11.32;;;;;;;;;;5076608;28;20020;-79
2022/02/14 13:07:09;;;;;;;23.85;13.60;;;;;;;;;;5075947;28;20048;-79
2022/02/14 13:09:35;;;;;;;28.15;14.55;;;;;;;;;;5076353;28;20045;-78
2022/02/14 13:12:11;;;;;;;28.52;15.13;;;;;;;;;;5078615;28;20016;-79
2022/02/14 13:14:38;;;;;;;28.73;14.13;;;;;;;;;;5080130;28;20078;-79
2022/02/14 13:17:05;;;;;;;24.60;13.90;;;;;;;;;;5078974;28;20052;-78
2022/02/14 13:19:33;;;;;;;18.92;12.30;;;;;;;;;;5079878;28;20024;-78
2022/02/14 13:21:59;;;;;;;29.98;11.50;;;;;;;;;;5079910;28;20024;-78
2022/02/14 13:24:27;;;;;;;34.03;12.02;;;;;;;;;;5079979;28;20096;-78
2022/02/14 13:27:08;;;;;;;18.15;10.75;;;;;;;;;;5079761;28;20016;-78
2022/02/14 13:29:48;;;;;;;21.63;11.10;;;;;;;;;;5079938;28;20478;-78
2022/02/14 13:32:15;;;;;;;16.02;10.57;;;;;;;;;;5079738;28;20051;-78
2022/02/14 13:34:51;;;;;;;24.35;13.13;;;;;;;;;;5079640;28;20058;-78
2022/02/14 13:37:18;;;;;;;23.92;12.60;;;;;;;;;;5079634;28;20048;-79
2022/02/14 13:39:45;;;;;;;20.92;11.55;;;;;;;;;;5071680;28;20057;-84
2022/02/14 13:42:21;;;;;;;19.73;11.93;;;;;;;;;;5072557;28;20086;-83
2022/02/14 13:44:57;;;;;;;18.17;10.75;;;;;;;;;;5060203;28;20033;-84
2022/02/14 13:47:23;;;;;;;20.65;11.10;;;;;;;;;;5069989;28;20031;-83
2022/02/14 13:49:50;;;;;;;21.52;12.70;;;;;;;;;;5067782;28;20025;-83
2022/02/14 13:52:24;;;;;;;19.08;10.95;;;;;;;;;;5060802;28;20029;-83
2022/02/14 13:55:02;;;;;;;20.50;10.45;;;;;;;;;;5061049;28;20143;-81
2022/02/14 13:57:28;;;;;;;22.13;12.30;;;;;;;;;;5059393;28;20032;-83
2022/02/14 13:59:54;;;;;;;16.50;10.50;;;;;;;;;;5079364;28;20070;-82
2022/02/14 14:02:20;;;;;;;17.73;9.15;;;;;;;;;;5078399;28;20124;-84
2022/02/14 14:04:48;;;;;;;23.50;12.07;;;;;;;;;;5078511;28;20043;-83
2022/02/14 14:07:22;;;;;;;27.17;12.35;;;;;;;;;;5079446;28;20052;-83
2022/02/14 14:09:51;;;;;;;21.45;10.88;;;;;;;;;;5078765;28;20036;-84
2022/02/14 14:12:44;;;;;;;18.05;9.43;;;;;;;;;;5079767;28;20033;-84
2022/02/14 14:15:11;;;;;;;18.02;10.10;;;;;;;;;;5076189;28;20078;-84
2022/02/14 14:17:37;;;;;;;18.85;11.27;;;;;;;;;;5079562;28;20353;-83
2022/02/14 14:20:03;;;;;;;19.50;12.20;;;;;;;;;;5061076;28;20040;-84
2022/02/14 14:22:32;;;;;;;17.83;11.85;;;;;;;;;;5059183;28;20108;-84
2022/02/14 14:25:00;;;;;;;18.60;11.98;;;;;;;;;;5059502;28;20029;-83
2022/02/14 14:27:26;;;;;;;21.63;13.57;;;;;;;;;;5059095;28;20657;-83
2022/02/14 14:29:52;;;;;;;21.42;13.57;;;;;;;;;;5059266;28;20068;-84
2022/02/14 14:32:18;;;;;;;22.05;13.85;;;;;;;;;;5058118;28;20327;-84
2022/02/14 14:34:44;;;;;;;30.10;13.70;;;;;;;;;;5070856;28;20433;-83
2022/02/14 14:37:10;;;;;;;47.63;15.02;;;;;;;;;;5078766;28;20032;-84